Aviation Digital Data Service (ADDS)

Output produced by METARs form (1425 UTC 23 January 2019)
found at http://www.aviationweather.gov/metar/data/
 
METAR text: HLLM 230750Z 24009KT 8000 BKN020 09/07 Q1007
Conditions at: HLLM (MITIGA , LY) observed 0750 UTC 23 January 2019
Temperature: 9.0°C (48°F)
Dewpoint: 7.0°C (45°F) [RH = 87%]
Pressure (altimeter): 29.73 inches Hg (1007.0 mb)
Winds: from the WSW (240 degrees) at 10 MPH (9 knots; 4.6 m/s)
Visibility: 5 miles ( 8 km)
Ceiling: 2000 feet AGL
Clouds: broken clouds at 2000 feet AGL
Weather: no significant weather observed at this time

METAR text: HLLM 230650Z 22005KT 6000 -SHRA SCT015 BKN020 BKN080 09/06 Q1007
Conditions at: HLLM (MITIGA , LY) observed 0650 UTC 23 January 2019
Temperature: 9.0°C (48°F)
Dewpoint: 6.0°C (43°F) [RH = 81%]
Pressure (altimeter): 29.73 inches Hg (1007.0 mb)
Winds: from the SW (220 degrees) at 6 MPH (5 knots; 2.6 m/s)
Visibility: 4 miles ( 6 km)
Ceiling: 2000 feet AGL
Clouds: scattered clouds at 1500 feet AGL
broken clouds at 2000 feet AGL
broken clouds at 8000 feet AGL
Weather: -SHRA  (light rain showers)

METAR text: HLLM 230550Z 25010KT 6000 -SHRA BKN020 BKN080 09/06 Q1006
Conditions at: HLLM (MITIGA , LY) observed 0550 UTC 23 January 2019
Temperature: 9.0°C (48°F)
Dewpoint: 6.0°C (43°F) [RH = 81%]
Pressure (altimeter): 29.70 inches Hg (1006.0 mb)
Winds: from the WSW (250 degrees) at 12 MPH (10 knots; 5.1 m/s)
Visibility: 4 miles ( 6 km)
Ceiling: 2000 feet AGL
Clouds: broken clouds at 2000 feet AGL
broken clouds at 8000 feet AGL
Weather: -SHRA  (light rain showers)

METAR text: HLLM 230450Z 25009G19KT 6000 BKN020 BKN080 09/06 Q1006
Conditions at: HLLM (MITIGA , LY) observed 0450 UTC 23 January 2019
Temperature: 9.0°C (48°F)
Dewpoint: 6.0°C (43°F) [RH = 81%]
Pressure (altimeter): 29.70 inches Hg (1006.0 mb)
Winds: from the WSW (250 degrees) at 10 MPH (9 knots; 4.6 m/s)
gusting to 22 MPH (19 knots; 9.8 m/s)
Visibility: 4 miles ( 6 km)
Ceiling: 2000 feet AGL
Clouds: broken clouds at 2000 feet AGL
broken clouds at 8000 feet AGL
Weather: no significant weather observed at this time

METAR text: HLLM 222255Z 31010KT 6000 -SHRA BKN020 BKN080 10/08 Q1007
Conditions at: HLLM (MITIGA , LY) observed 2255 UTC 22 January 2019
Temperature: 10.0°C (50°F)
Dewpoint: 8.0°C (46°F) [RH = 87%]
Pressure (altimeter): 29.73 inches Hg (1007.0 mb)
Winds: from the NW (310 degrees) at 12 MPH (10 knots; 5.1 m/s)
Visibility: 4 miles ( 6 km)
Ceiling: 2000 feet AGL
Clouds: broken clouds at 2000 feet AGL
broken clouds at 8000 feet AGL
Weather: -SHRA  (light rain showers)

METAR text: HLLM 222055Z 02012KT 6000 SCT018 BKN080 14/09 Q1009
Conditions at: HLLM (MITIGA , LY) observed 2055 UTC 22 January 2019
Temperature: 14.0°C (57°F)
Dewpoint: 9.0°C (48°F) [RH = 72%]
Pressure (altimeter): 29.79 inches Hg (1009.0 mb)
Winds: from the NNE (20 degrees) at 14 MPH (12 knots; 6.2 m/s)
Visibility: 4 miles ( 6 km)
Ceiling: 8000 feet AGL
Clouds: scattered clouds at 1800 feet AGL
broken clouds at 8000 feet AGL
Weather: no significant weather observed at this time

METAR text: HLLM 221950Z 06013KT 7000 SCT018 BKN080 15/09 Q1009
Conditions at: HLLM (MITIGA , LY) observed 1950 UTC 22 January 2019
Temperature: 15.0°C (59°F)
Dewpoint: 9.0°C (48°F) [RH = 67%]
Pressure (altimeter): 29.79 inches Hg (1009.0 mb)
Winds: from the ENE (60 degrees) at 15 MPH (13 knots; 6.7 m/s)
Visibility: 4 miles ( 7 km)
Ceiling: 8000 feet AGL
Clouds: scattered clouds at 1800 feet AGL
broken clouds at 8000 feet AGL
Weather: no significant weather observed at this time

METAR text: HLLM 221850Z 06013KT 7000 SCT018 BKN080 15/09 Q1008
Conditions at: HLLM (MITIGA , LY) observed 1850 UTC 22 January 2019
Temperature: 15.0°C (59°F)
Dewpoint: 9.0°C (48°F) [RH = 67%]
Pressure (altimeter): 29.76 inches Hg (1008.0 mb)
Winds: from the ENE (60 degrees) at 15 MPH (13 knots; 6.7 m/s)
Visibility: 4 miles ( 7 km)
Ceiling: 8000 feet AGL
Clouds: scattered clouds at 1800 feet AGL
broken clouds at 8000 feet AGL
Weather: no significant weather observed at this time

METAR text: HLLM 221755Z 05011KT 7000 SCT018 BKN080 15/09 Q1010
Conditions at: HLLM (MITIGA , LY) observed 1755 UTC 22 January 2019
Temperature: 15.0°C (59°F)
Dewpoint: 9.0°C (48°F) [RH = 67%]
Pressure (altimeter): 29.82 inches Hg (1010.0 mb)
Winds: from the NE (50 degrees) at 13 MPH (11 knots; 5.7 m/s)
Visibility: 4 miles ( 7 km)
Ceiling: 8000 feet AGL
Clouds: scattered clouds at 1800 feet AGL
broken clouds at 8000 feet AGL
Weather: no significant weather observed at this time

METAR text: HLLM 221650Z 05009KT 7000 NSC 14/08 Q1009
Conditions at: HLLM (MITIGA , LY) observed 1650 UTC 22 January 2019
Temperature: 14.0°C (57°F)
Dewpoint: 8.0°C (46°F) [RH = 67%]
Pressure (altimeter): 29.79 inches Hg (1009.0 mb)
Winds: from the NE (50 degrees) at 10 MPH (9 knots; 4.6 m/s)
Visibility: 4 miles ( 7 km)
Ceiling: at least 12,000 feet AGL
Clouds: sky clear below 12,000 feet AGL
Weather: no significant weather observed at this time

METAR text: HLLM 221250Z 04004KT 7000 BKN080 15/07 Q1011
Conditions at: HLLM (MITIGA , LY) observed 1250 UTC 22 January 2019
Temperature: 15.0°C (59°F)
Dewpoint: 7.0°C (45°F) [RH = 59%]
Pressure (altimeter): 29.85 inches Hg (1011.0 mb)
Winds: from the NE (40 degrees) at 5 MPH (4 knots; 2.1 m/s)
Visibility: 4 miles ( 7 km)
Ceiling: 8000 feet AGL
Clouds: broken clouds at 8000 feet AGL
Weather: no significant weather observed at this time

METAR text: HLLM 221150Z 35006KT 7000 BKN080 15/07 Q1013
Conditions at: HLLM (MITIGA , LY) observed 1150 UTC 22 January 2019
Temperature: 15.0°C (59°F)
Dewpoint: 7.0°C (45°F) [RH = 59%]
Pressure (altimeter): 29.91 inches Hg (1013.0 mb)
Winds: from the N (350 degrees) at 7 MPH (6 knots; 3.1 m/s)
Visibility: 4 miles ( 7 km)
Ceiling: 8000 feet AGL
Clouds: broken clouds at 8000 feet AGL
Weather: no significant weather observed at this time

METAR text: HLLM 221050Z 30005KT 7000 BKN080 16/07 Q1014
Conditions at: HLLM (MITIGA , LY) observed 1050 UTC 22 January 2019
Temperature: 16.0°C (61°F)
Dewpoint: 7.0°C (45°F) [RH = 55%]
Pressure (altimeter): 29.94 inches Hg (1014.0 mb)
Winds: from the WNW (300 degrees) at 6 MPH (5 knots; 2.6 m/s)
Visibility: 4 miles ( 7 km)
Ceiling: 8000 feet AGL
Clouds: broken clouds at 8000 feet AGL
Weather: no significant weather observed at this time

METAR text: HLLM 220950Z 33008KT 7000 BKN080 16/05 Q1015
Conditions at: HLLM (MITIGA , LY) observed 0950 UTC 22 January 2019
Temperature: 16.0°C (61°F)
Dewpoint: 5.0°C (41°F) [RH = 48%]
Pressure (altimeter): 29.97 inches Hg (1015.0 mb)
Winds: from the NNW (330 degrees) at 9 MPH (8 knots; 4.1 m/s)
Visibility: 4 miles ( 7 km)
Ceiling: 8000 feet AGL
Clouds: broken clouds at 8000 feet AGL
Weather: no significant weather observed at this time

METAR text: HLLM 210750Z 19006KT 7000 SCT035 BKN040 12/01 Q1015
Conditions at: HLLM (MITIGA , LY) observed 0750 UTC 22 January 2019
Temperature: 12.0°C (54°F)
Dewpoint: 1.0°C (34°F) [RH = 47%]
Pressure (altimeter): 29.97 inches Hg (1015.0 mb)
Winds: from the S (190 degrees) at 7 MPH (6 knots; 3.1 m/s)
Visibility: 4 miles ( 7 km)
Ceiling: 4000 feet AGL
Clouds: scattered clouds at 3500 feet AGL
broken clouds at 4000 feet AGL
Weather: no significant weather observed at this time

METAR text: HLLM 210650Z 20005KT 6000 SCT030 BKN035 11/01 Q10015
Conditions at: HLLM (MITIGA , LY) observed 0650 UTC 22 January 2019
Temperature: 11.0°C (52°F)
Dewpoint: 1.0°C (34°F) [RH = 50%]
Pressure (altimeter): missing
Winds: from the SSW (200 degrees) at 6 MPH (5 knots; 2.6 m/s)
Visibility: 4 miles ( 6 km)
Ceiling: 3500 feet AGL
Clouds: scattered clouds at 3000 feet AGL
broken clouds at 3500 feet AGL
Weather: no significant weather observed at this time

METAR text: HLLM 210455Z 20005KT 6000 BKN035 10/00 Q1015
Conditions at: HLLM (MITIGA , LY) observed 0455 UTC 22 January 2019
Temperature: 10.0°C (50°F)
Dewpoint: 0.0°C (32°F) [RH = 50%]
Pressure (altimeter): 29.97 inches Hg (1015.0 mb)
Winds: from the SSW (200 degrees) at 6 MPH (5 knots; 2.6 m/s)
Visibility: 4 miles ( 6 km)
Ceiling: 3500 feet AGL
Clouds: broken clouds at 3500 feet AGL
Weather: no significant weather observed at this time

Forecast for: HLLM (MITIGA , LY)
Text: TAF HLLM 231100Z 2312/2412 27015G25KT 8000 SCT023 BKN060
Forecast period: 1200 to 1800 UTC 23 January 2019
Forecast type: FROM: standard forecast or significant change
Winds: from the W (270 degrees) at 17 MPH (15 knots; 7.7 m/s)
gusting to 29 MPH (25 knots; 12.9 m/s)
Visibility: 5 miles (8 km)
Ceiling: 6000 feet AGL
Clouds: scattered clouds at 2300 feet AGL
broken clouds at 6000 feet AGL
Weather: no significant weather forecast for this period
Text: TEMPO 2312/2320 5000 SHRA BKN020 BKN060
Forecast period: 1200 to 2000 UTC 23 January 2019
Forecast type: TEMPORARY: The following changes expected for less than half the time period
Visibility: 3 miles (5 km)
Ceiling: 2000 feet AGL
Clouds: broken clouds at 2000 feet AGL
broken clouds at 6000 feet AGL
Weather: SHRA  (rain showers)
Text: BECMG 2318/2320 20012G22KT 8000 SCT023 SCT060
Forecast period: 1800 UTC 23 January 2019 to 0800 UTC 24 January 2019
Forecast type: BECOMING: Conditions expected to become as follows by 2000 UTC 23 January 2019
Winds: from the SSW (200 degrees) at 14 MPH (12 knots; 6.2 m/s)
gusting to 25 MPH (22 knots; 11.3 m/s)
Visibility: 5 miles (8 km)
Ceiling: at least 12,000 feet AGL
Clouds: scattered clouds at 2300 feet AGL
scattered clouds at 6000 feet AGL
Weather: no significant weather forecast for this period
Text: BECMG 2408/2410 27015G25KT
Forecast period: 0800 to 1200 UTC 24 January 2019
Forecast type: BECOMING: Conditions expected to become as follows by 1000 UTC 24 January 2019
Winds: from the W (270 degrees) at 17 MPH (15 knots; 7.7 m/s)
gusting to 29 MPH (25 knots; 12.9 m/s)
Visibility: 5 miles (8 km)
Ceiling: at least 12,000 feet AGL
Clouds: scattered clouds at 2300 feet AGL
scattered clouds at 6000 feet AGL
Weather: no significant weather forecast for this period
Text: PROB30
Forecast period: 1000 to 1200 UTC 24 January 2019
Forecast type: TEMPORARY: The following changes expected for less than half the time period
Visibility: 3 miles (5 km)
Ceiling: 2000 feet AGL
Clouds: broken clouds at 2000 feet AGL
broken clouds at 6000 feet AGL
Weather: SHRA  (rain showers)